Santa Ynez, CA

12:54 PM PDT on March 27, 2015 (GMT -0700)
Near Refugio Rd & Hwy 246 (Station #1) | | Change Station
CLOSE
Current Station
Personal Weather Station
Location: Santa Ynez, CA
Elevation: 650 ft
Nearby Weather Stations

Elev 650 ft 34.60 °N, 120.10 °W | Updated 1 second ago

Clear
Clear
91.4 °F
Feels Like 87 °F
N
13.8
Wind Variable Wind from WSW
Gusts 13.8 mph

Today
High -- | Low -- °F
--% Chance of Precip.
Yesterday
High -- | Low -- °F
Precip. -- in
6:54 AM 7:17 PM
First Quarter, 55% visible
Pressure 30.08 in
Visibility 10.0 miles
Clouds Clear
Heat Index 87 °F
Dew Point 42 °F
Humidity 18%
Rainfall 0.00 in
Snow Depth Not available.
UV 9 out of 12
Pollen 10.30 out of 12
Air Quality Not available.
Flu Activity Not available.
METAR KIZA 271935Z AUTO 29007KT 10SM CLR 32/00 A3008 RMK AO2

More Conditions Fewer Conditions

Pressure 30.08 in
Visibility 10.0 miles
Clouds Clear
Heat Index 87 °F
Dew Point 42 °F
Humidity 18%
Rainfall 0.00 in
Snow Depth Not available.
UV 9 out of 12
Pollen 10.30 out of 12
Air Quality Not available.
Flu Activity Not available.
METAR KIZA 271935Z AUTO 29007KT 10SM CLR 32/00 A3008 RMK AO2

More Conditions Fewer Conditions

10-Day Weather Forecast

Almanac

Astronomy

Mar. 27, 2015 Rise Set
Actual Time
Civil Twilight
Nautical Twilight
Astronomical Twilight
Moon
Length of Visible Light
Length of Day
Tomorrow will be .
, % of the Moon is Illuminated

Today's Extremes

State Highs State Lows

Community

WunderPhotos

Upload Photos

1,808,799 photos uploaded!

WunderBlogs® & News

Nearby

Air Quality

  Air Quality AQ Index Pollutant
Not available.

Snow Depth

Station Depth Elevation

Earthquake Activity

City Distance Mag. Time & Date
Minimum magnitude displayed is 2.5.

Coastal Water Temperatures

Place Temperature

Stations

Nearby Weather Stations

Station Location Temp. Windchill Dew Point Humidity Wind Precip. Elev Updated Type